createdAt,value
2018-08-27T00:00:37.091Z,1.00
2018-08-27T00:01:36.974Z,0.90
2018-08-27T00:02:37.096Z,1.00
2018-08-27T00:03:36.989Z,1.20
2018-08-27T00:04:37.004Z,0.90
2018-08-27T00:05:37.029Z,0.90
2018-08-27T00:06:37.020Z,0.80
2018-08-27T00:07:37.139Z,0.90
2018-08-27T00:08:37.045Z,1.10
2018-08-27T00:09:37.177Z,0.80
2018-08-27T00:10:37.073Z,0.90
2018-08-27T00:11:37.069Z,0.90
2018-08-27T00:12:37.351Z,1.00
2018-08-27T00:13:37.099Z,1.10
2018-08-27T00:14:37.095Z,0.90
2018-08-27T00:15:37.231Z,1.00
2018-08-27T00:16:37.135Z,0.80
2018-08-27T00:17:37.239Z,0.80
2018-08-27T00:18:37.127Z,0.90
2018-08-27T00:20:37.145Z,1.40
2018-08-27T00:21:37.285Z,1.30
2018-08-27T00:23:37.193Z,1.20
2018-08-27T00:25:37.212Z,1.20
2018-08-27T00:26:37.239Z,1.10
2018-08-27T00:28:37.278Z,1.10
2018-08-27T00:29:37.248Z,1.20
2018-08-27T00:30:37.290Z,1.40
2018-08-27T00:32:37.420Z,0.90
2018-08-27T00:33:37.270Z,0.80
2018-08-27T00:34:37.406Z,0.90
2018-08-27T00:35:37.302Z,1.00
2018-08-27T00:36:37.297Z,0.80
2018-08-27T00:37:37.470Z,0.80
2018-08-27T00:39:37.341Z,0.80
2018-08-27T00:40:37.348Z,1.00
2018-08-27T00:42:37.565Z,0.90
2018-08-27T00:43:37.382Z,1.00
2018-08-27T00:44:37.385Z,1.00
2018-08-27T00:45:37.396Z,0.90
2018-08-27T00:47:37.660Z,0.90
2018-08-27T00:48:37.417Z,0.90
2018-08-27T00:49:37.551Z,0.90
2018-08-27T00:50:37.459Z,0.90
2018-08-27T00:52:37.619Z,1.00
2018-08-27T00:53:37.463Z,1.00
2018-08-27T00:54:37.490Z,1.10
2018-08-27T00:55:37.485Z,1.00
2018-08-27T00:56:37.514Z,0.80
2018-08-27T00:58:37.532Z,0.90
2018-08-27T00:59:37.600Z,0.90
2018-08-27T01:01:37.665Z,0.80
2018-08-27T01:02:37.717Z,0.80
2018-08-27T01:04:37.568Z,0.80
2018-08-27T01:07:37.750Z,0.80
2018-08-27T01:08:37.603Z,0.80
2018-08-27T01:09:37.613Z,0.80
2018-08-27T01:11:37.639Z,1.00
2018-08-27T01:12:37.967Z,1.10
2018-08-27T01:13:37.652Z,0.80
2018-08-27T01:14:37.669Z,0.90
2018-08-27T01:15:37.672Z,1.00
2018-08-27T01:16:37.682Z,1.00
2018-08-27T01:17:37.904Z,1.20
2018-08-27T01:18:37.720Z,1.10
2018-08-27T01:20:37.844Z,0.80
2018-08-27T01:21:37.726Z,0.80
2018-08-27T01:24:37.754Z,0.90
2018-08-27T01:25:37.890Z,0.90
2018-08-27T01:26:37.792Z,1.00
2018-08-27T01:33:37.851Z,0.90
2018-08-27T01:34:37.864Z,1.00
2018-08-27T01:35:37.859Z,1.00
2018-08-27T01:36:38.001Z,1.10
2018-08-27T01:37:38.033Z,1.00
2018-08-27T01:38:38.016Z,1.00
2018-08-27T01:39:37.901Z,1.10
2018-08-27T01:40:38.047Z,1.10
2018-08-27T01:42:38.207Z,1.00
2018-08-27T01:44:37.960Z,1.00
2018-08-27T01:45:37.961Z,0.90
2018-08-27T01:47:38.065Z,1.10
2018-08-27T01:48:37.986Z,1.20
2018-08-27T01:49:37.992Z,1.40
2018-08-27T01:50:38.130Z,1.10
2018-08-27T01:51:38.025Z,1.20
2018-08-27T01:52:38.204Z,1.30
2018-08-27T01:53:38.034Z,1.10
2018-08-27T01:55:38.053Z,1.30
2018-08-27T01:56:38.064Z,1.50
2018-08-27T01:57:38.199Z,1.40
2018-08-27T01:58:38.204Z,1.60
2018-08-27T01:59:38.311Z,1.50
2018-08-27T02:01:38.111Z,1.70
2018-08-27T02:02:38.112Z,1.90
2018-08-27T02:04:38.410Z,1.80
2018-08-27T02:05:38.270Z,1.80
2018-08-27T02:06:38.283Z,1.60
2018-08-27T02:08:38.302Z,1.90
2018-08-27T02:10:38.211Z,1.90
2018-08-27T02:13:38.222Z,1.80
2018-08-27T02:14:38.507Z,1.80
2018-08-27T02:16:38.373Z,2.00
2018-08-27T02:17:38.381Z,1.60
2018-08-27T02:18:38.262Z,1.70
2018-08-27T02:19:38.549Z,1.80
2018-08-27T02:20:38.286Z,1.90
2018-08-27T02:21:38.304Z,1.90
2018-08-27T02:24:38.369Z,2.30
2018-08-27T02:25:38.350Z,2.10
2018-08-27T02:27:38.478Z,2.50
2018-08-27T02:29:38.376Z,2.30
2018-08-27T02:30:38.395Z,2.70
2018-08-27T02:32:38.392Z,2.50
2018-08-27T02:33:38.406Z,2.30
2018-08-27T02:34:38.422Z,2.80
2018-08-27T02:35:38.424Z,2.90
2018-08-27T02:36:38.585Z,2.90
2018-08-27T02:37:38.567Z,2.90
2018-08-27T02:38:38.576Z,3.10
2018-08-27T02:39:38.592Z,2.80
2018-08-27T02:40:38.469Z,2.40
2018-08-27T02:44:38.633Z,2.80
2018-08-27T02:45:38.527Z,2.90
2018-08-27T02:46:38.528Z,3.20
2018-08-27T02:47:38.558Z,2.80
2018-08-27T02:48:38.767Z,2.90
2018-08-27T02:52:38.583Z,3.30
2018-08-27T02:53:38.741Z,3.30
2018-08-27T02:54:38.598Z,3.10
2018-08-27T02:58:38.910Z,2.90
2018-08-27T03:00:38.661Z,2.80
2018-08-27T03:01:38.664Z,2.90
2018-08-27T03:02:38.810Z,2.70
2018-08-27T03:05:38.713Z,2.70
2018-08-27T03:06:38.712Z,2.80
2018-08-27T03:08:38.913Z,2.50
2018-08-27T03:11:38.768Z,2.70
2018-08-27T03:12:38.764Z,2.60
2018-08-27T03:13:39.055Z,2.70
2018-08-27T03:15:38.792Z,2.90
2018-08-27T03:17:38.933Z,2.90
2018-08-27T03:18:39.043Z,2.70
2018-08-27T03:19:38.960Z,3.10
2018-08-27T03:20:38.840Z,2.80
2018-08-27T03:22:38.869Z,3.30
2018-08-27T03:24:39.003Z,3.30
2018-08-27T03:25:39.010Z,3.60
2018-08-27T03:27:39.004Z,3.20
2018-08-27T03:33:38.986Z,2.50
2018-08-27T03:36:39.113Z,2.60
2018-08-27T03:37:39.091Z,2.50
2018-08-27T03:38:39.131Z,2.70
2018-08-27T03:39:39.137Z,2.30
2018-08-27T03:41:39.051Z,2.60
2018-08-27T03:42:39.320Z,2.80
2018-08-27T03:43:39.175Z,2.70
2018-08-27T03:45:39.069Z,3.00
2018-08-27T03:47:39.248Z,3.00
2018-08-27T03:48:39.162Z,2.70
2018-08-27T03:49:39.117Z,2.60
2018-08-27T03:51:39.252Z,3.10
2018-08-27T03:52:39.129Z,2.90
2018-08-27T03:54:39.277Z,3.70
2018-08-27T03:57:39.176Z,3.50
2018-08-27T04:01:39.232Z,3.70
2018-08-27T04:02:39.226Z,4.20
2018-08-27T04:03:39.237Z,3.70
2018-08-27T04:07:39.399Z,3.30
2018-08-27T04:11:39.430Z,3.50
2018-08-27T04:14:39.429Z,3.00
2018-08-27T04:15:39.474Z,2.90
2018-08-27T04:16:39.476Z,2.80
2018-08-27T04:17:39.357Z,2.80
2018-08-27T04:19:39.606Z,2.30
2018-08-27T04:20:39.374Z,2.60
2018-08-27T04:22:39.409Z,2.40
2018-08-27T04:23:39.538Z,2.40
2018-08-27T04:24:39.576Z,2.30
2018-08-27T04:25:39.429Z,2.30
2018-08-27T04:27:39.460Z,2.20
2018-08-27T04:31:39.499Z,2.20
2018-08-27T04:32:39.500Z,2.10
2018-08-27T04:33:39.636Z,2.40
2018-08-27T04:34:39.741Z,2.20
2018-08-27T04:35:39.652Z,2.20
2018-08-27T04:39:39.669Z,1.90
2018-08-27T04:43:39.609Z,2.00
2018-08-27T04:44:39.885Z,2.00
2018-08-27T04:45:39.642Z,2.20
2018-08-27T04:46:39.622Z,2.10
2018-08-27T04:48:39.645Z,2.10
2018-08-27T04:49:39.743Z,2.30
2018-08-27T04:50:39.784Z,2.10
2018-08-27T04:52:39.679Z,2.10
2018-08-27T04:53:39.818Z,2.10
2018-08-27T04:55:39.697Z,2.50
2018-08-27T04:56:39.764Z,2.20
2018-08-27T04:57:39.726Z,2.10
2018-08-27T04:58:39.730Z,2.40
2018-08-27T04:59:39.866Z,2.50
2018-08-27T05:00:39.922Z,2.40
2018-08-27T05:01:39.765Z,2.40
2018-08-27T05:03:39.833Z,2.50
2018-08-27T05:05:39.793Z,2.60
2018-08-27T05:06:40.087Z,2.70
2018-08-27T05:07:39.814Z,2.40
2018-08-27T05:08:39.948Z,2.80
2018-08-27T05:09:39.849Z,2.90
2018-08-27T05:10:39.852Z,2.90
2018-08-27T05:11:39.947Z,3.00
2018-08-27T05:13:39.870Z,2.60
2018-08-27T05:16:39.916Z,2.30
2018-08-27T05:18:39.916Z,3.10
2018-08-27T05:19:39.921Z,3.40
2018-08-27T05:20:39.978Z,3.60
2018-08-27T05:21:39.953Z,3.80
2018-08-27T05:22:40.074Z,3.90
2018-08-27T05:24:39.970Z,4.50
2018-08-27T05:25:39.977Z,4.60
2018-08-27T05:26:40.038Z,5.00
2018-08-27T05:27:40.117Z,4.80
2018-08-27T05:28:40.279Z,4.50
2018-08-27T05:30:40.063Z,3.60
2018-08-27T05:31:40.166Z,3.70
2018-08-27T05:32:40.033Z,3.50
2018-08-27T05:33:40.326Z,2.90
2018-08-27T05:37:40.089Z,3.90
2018-08-27T05:38:40.277Z,2.80
2018-08-27T05:39:40.166Z,2.60
2018-08-27T05:40:40.240Z,2.90
2018-08-27T05:41:40.118Z,2.90
2018-08-27T05:42:40.130Z,3.70
2018-08-27T05:43:40.365Z,3.70
2018-08-27T05:44:40.151Z,3.70
2018-08-27T05:45:40.161Z,3.10
2018-08-27T05:46:40.229Z,3.20
2018-08-27T05:47:40.214Z,2.90
2018-08-27T05:48:40.284Z,2.90
2018-08-27T05:51:40.219Z,3.70
2018-08-27T05:54:40.237Z,3.40
2018-08-27T05:55:40.255Z,3.50
2018-08-27T05:57:40.268Z,3.50
2018-08-27T06:01:40.400Z,4.60
2018-08-27T06:02:40.432Z,4.60
2018-08-27T06:03:40.525Z,4.30
2018-08-27T06:04:40.456Z,4.40
2018-08-27T06:05:40.341Z,4.10
2018-08-27T06:06:40.472Z,4.10
2018-08-27T06:07:40.367Z,4.50
2018-08-27T06:09:40.405Z,4.00
2018-08-27T06:10:40.386Z,3.60
2018-08-27T06:11:40.522Z,4.00
2018-08-27T06:12:40.396Z,4.40
2018-08-27T06:13:40.466Z,5.00
2018-08-27T06:14:40.423Z,4.50
2018-08-27T06:16:40.551Z,4.20
2018-08-27T06:17:40.583Z,5.00
2018-08-27T06:18:40.609Z,5.00
2018-08-27T06:19:40.456Z,3.70
2018-08-27T06:20:40.471Z,3.90
2018-08-27T06:21:40.490Z,3.60
2018-08-27T06:27:40.668Z,4.20
2018-08-27T06:28:40.674Z,4.20
2018-08-27T06:29:40.600Z,4.20
2018-08-27T06:32:40.710Z,4.50
2018-08-27T06:33:40.718Z,4.40
2018-08-27T06:34:40.599Z,3.80
2018-08-27T06:36:40.717Z,3.50
2018-08-27T06:37:40.640Z,3.60
2018-08-27T06:38:40.642Z,3.20
2018-08-27T06:39:40.782Z,3.60
2018-08-27T06:40:40.660Z,3.00
2018-08-27T06:42:40.689Z,3.40
2018-08-27T06:44:40.718Z,2.70
2018-08-27T06:46:40.873Z,2.80
2018-08-27T06:47:40.715Z,2.50
2018-08-27T06:49:40.862Z,2.70
2018-08-27T06:50:40.876Z,2.60
2018-08-27T06:51:41.033Z,2.80
2018-08-27T06:52:40.760Z,2.10
2018-08-27T06:54:40.784Z,2.10
2018-08-27T06:55:40.790Z,1.90
2018-08-27T06:56:41.035Z,2.30
2018-08-27T06:58:40.838Z,2.20
2018-08-27T06:59:40.951Z,1.90
2018-08-27T07:00:40.828Z,2.20
2018-08-27T07:01:41.068Z,2.40
2018-08-27T07:02:40.902Z,2.00
2018-08-27T07:05:40.881Z,1.90
2018-08-27T07:06:41.049Z,1.90
2018-08-27T07:07:41.129Z,1.90
2018-08-27T07:09:41.044Z,2.10
2018-08-27T07:10:41.058Z,1.80
2018-08-27T07:11:41.115Z,1.80
2018-08-27T07:12:40.959Z,2.10
2018-08-27T07:14:40.966Z,2.10
2018-08-27T07:15:41.019Z,1.80
2018-08-27T07:20:41.031Z,2.30
2018-08-27T07:21:41.051Z,2.00
2018-08-27T07:23:41.056Z,2.40
2018-08-27T07:24:41.055Z,2.20
2018-08-27T07:25:41.083Z,2.00
2018-08-27T07:26:41.076Z,2.20
2018-08-27T07:27:41.239Z,2.20
2018-08-27T07:28:41.087Z,2.40
2018-08-27T07:30:41.113Z,2.50
2018-08-27T07:32:41.303Z,3.10
2018-08-27T07:33:41.266Z,3.00
2018-08-27T07:34:41.272Z,3.00
2018-08-27T07:35:41.325Z,3.40
2018-08-27T07:36:41.407Z,3.50
2018-08-27T07:37:41.175Z,3.60
2018-08-27T07:38:41.211Z,4.00
2018-08-27T07:40:41.329Z,4.40
2018-08-27T07:41:41.456Z,4.50
2018-08-27T07:45:41.239Z,5.40
2018-08-27T07:46:41.407Z,5.00
2018-08-27T07:48:41.401Z,5.30
2018-08-27T07:49:41.292Z,5.10
2018-08-27T07:52:41.319Z,5.80
2018-08-27T07:53:41.332Z,6.20
2018-08-27T07:54:41.340Z,5.80
2018-08-27T07:55:41.352Z,6.20
2018-08-27T07:56:41.444Z,6.30
2018-08-27T07:59:41.497Z,5.90
2018-08-27T08:01:41.496Z,6.20
2018-08-27T08:02:41.404Z,5.60
2018-08-27T08:03:41.530Z,5.80
2018-08-27T08:04:41.640Z,5.00
2018-08-27T08:06:41.486Z,5.40
2018-08-27T08:07:41.575Z,5.20
2018-08-27T08:08:41.455Z,5.80
2018-08-27T08:09:41.718Z,6.00
2018-08-27T08:11:41.482Z,5.30
2018-08-27T08:12:41.548Z,5.10
2018-08-27T08:13:41.509Z,5.20
2018-08-27T08:16:41.656Z,4.80
2018-08-27T08:17:41.536Z,4.90
2018-08-27T08:18:41.671Z,5.10
2018-08-27T08:21:41.700Z,4.50
2018-08-27T08:23:41.712Z,4.60
2018-08-27T08:25:41.738Z,4.60
2018-08-27T08:26:41.622Z,4.50
2018-08-27T08:27:41.633Z,5.10
2018-08-27T08:32:41.663Z,5.50
2018-08-27T08:33:41.695Z,5.70
2018-08-27T08:35:41.821Z,5.60
2018-08-27T08:36:41.704Z,6.30
2018-08-27T08:37:41.723Z,6.00
2018-08-27T08:38:41.850Z,6.60
2018-08-27T08:39:41.898Z,6.10
2018-08-27T08:41:41.796Z,6.30
2018-08-27T08:48:41.816Z,8.90
2018-08-27T08:50:41.956Z,10.00
2018-08-27T08:51:41.848Z,9.10
2018-08-27T08:53:41.857Z,9.70
2018-08-27T08:55:41.930Z,8.70
2018-08-27T08:58:41.915Z,9.00
2018-08-27T08:59:42.071Z,9.30
2018-08-27T09:01:42.143Z,7.90
2018-08-27T09:02:41.935Z,8.20
2018-08-27T09:04:42.156Z,9.10
2018-08-27T09:05:41.979Z,8.80
2018-08-27T09:06:41.992Z,8.90
2018-08-27T09:07:42.112Z,9.10
2018-08-27T09:08:42.037Z,9.90
2018-08-27T09:09:42.234Z,9.60
2018-08-27T09:11:42.045Z,9.60
2018-08-27T09:12:42.156Z,9.80
2018-08-27T09:13:42.043Z,9.10
2018-08-27T09:16:42.091Z,9.80
2018-08-27T09:18:42.212Z,9.60
2018-08-27T09:19:42.255Z,9.70
2018-08-27T09:20:42.118Z,9.70
2018-08-27T09:21:42.131Z,9.30
2018-08-27T09:22:42.251Z,8.80
2018-08-27T09:23:42.216Z,8.90
2018-08-27T09:24:42.189Z,8.60
2018-08-27T09:25:42.221Z,9.10
2018-08-27T09:26:42.284Z,9.80
2018-08-27T09:27:42.496Z,9.40
2018-08-27T09:28:42.191Z,9.00
2018-08-27T09:29:42.235Z,9.10
2018-08-27T09:30:42.203Z,8.90
2018-08-27T09:31:42.210Z,9.50
2018-08-27T09:32:42.491Z,9.80
2018-08-27T09:33:42.348Z,9.50
2018-08-27T09:34:42.245Z,8.00
2018-08-27T09:35:42.370Z,8.90
2018-08-27T09:38:42.395Z,8.30
2018-08-27T09:40:42.424Z,9.10
2018-08-27T09:41:42.537Z,8.40
2018-08-27T09:44:42.345Z,7.50
2018-08-27T09:45:42.351Z,7.40
2018-08-27T09:46:42.364Z,7.60
2018-08-27T09:47:42.407Z,7.90
2018-08-27T09:48:42.383Z,8.30
2018-08-27T09:49:42.504Z,8.60
2018-08-27T09:51:42.391Z,8.40
2018-08-27T09:52:42.600Z,8.70
2018-08-27T09:53:42.543Z,8.70
2018-08-27T09:54:42.421Z,8.50
2018-08-27T09:55:42.583Z,10.00
2018-08-27T09:56:42.564Z,9.20
2018-08-27T09:58:42.629Z,9.20
2018-08-27T10:00:42.519Z,8.30
2018-08-27T10:01:42.610Z,9.40
2018-08-27T10:02:42.622Z,9.10
2018-08-27T10:04:42.517Z,9.10
2018-08-27T10:06:42.664Z,10.10
2018-08-27T10:07:42.670Z,8.90
2018-08-27T10:08:42.654Z,8.70
2018-08-27T10:12:42.587Z,7.60
2018-08-27T10:13:42.717Z,7.90
2018-08-27T10:14:42.625Z,8.10
2018-08-27T10:15:42.630Z,7.60
2018-08-27T10:16:42.762Z,7.00
2018-08-27T10:17:42.646Z,7.60
2018-08-27T10:18:42.827Z,8.10
2018-08-27T10:19:42.786Z,9.00
2018-08-27T10:20:42.673Z,9.00
2018-08-27T10:21:42.848Z,8.70
2018-08-27T10:23:42.822Z,7.10
2018-08-27T10:24:42.714Z,7.80
2018-08-27T10:27:42.745Z,7.30
2018-08-27T10:28:42.749Z,7.90
2018-08-27T10:29:42.889Z,7.10
2018-08-27T10:30:42.763Z,7.40
2018-08-27T10:31:42.954Z,7.40
2018-08-27T10:32:42.807Z,8.40
2018-08-27T10:33:42.809Z,7.60
2018-08-27T10:34:43.007Z,7.60
2018-08-27T10:35:42.832Z,8.60
2018-08-27T10:36:42.850Z,8.00
2018-08-27T10:37:42.828Z,8.30
2018-08-27T10:38:42.857Z,7.10
2018-08-27T10:39:43.063Z,7.40
2018-08-27T10:40:42.874Z,6.90
2018-08-27T10:41:43.001Z,6.40
2018-08-27T10:42:42.901Z,6.60
2018-08-27T10:43:42.889Z,6.80
2018-08-27T10:44:43.191Z,7.20
2018-08-27T10:45:42.908Z,7.20
2018-08-27T10:46:42.937Z,8.40
2018-08-27T10:47:43.066Z,8.80
2018-08-27T10:48:42.959Z,8.50
2018-08-27T10:49:43.072Z,7.70
2018-08-27T10:50:43.093Z,8.70
2018-08-27T10:51:43.027Z,8.90
2018-08-27T10:52:43.121Z,9.20
2018-08-27T10:53:43.125Z,9.10
2018-08-27T10:54:43.184Z,9.60
2018-08-27T10:55:43.145Z,9.80
2018-08-27T10:56:43.038Z,10.70
2018-08-27T10:57:43.071Z,10.90
2018-08-27T10:58:43.182Z,10.70
2018-08-27T10:59:43.440Z,11.30
2018-08-27T11:00:43.069Z,10.70
2018-08-27T11:01:43.207Z,11.00
2018-08-27T11:02:43.094Z,11.70
2018-08-27T11:03:43.097Z,11.30
2018-08-27T11:04:43.345Z,12.00
2018-08-27T11:05:43.248Z,11.80
2018-08-27T11:06:43.148Z,11.90
2018-08-27T11:07:43.149Z,9.30
2018-08-27T11:08:43.159Z,10.30
2018-08-27T11:09:43.331Z,10.10
2018-08-27T11:10:43.293Z,10.50
2018-08-27T11:11:43.312Z,10.30
2018-08-27T11:12:43.204Z,10.00
2018-08-27T11:13:43.339Z,9.40
2018-08-27T11:14:43.318Z,10.50
2018-08-27T11:15:43.231Z,9.30
2018-08-27T11:16:43.365Z,7.10
2018-08-27T11:17:43.253Z,7.60
2018-08-27T11:18:43.257Z,8.70
2018-08-27T11:19:43.774Z,8.40
2018-08-27T11:20:43.583Z,8.70
2018-08-27T11:21:43.417Z,9.10
2018-08-27T11:22:43.307Z,9.60
2018-08-27T11:23:43.447Z,9.80
2018-08-27T11:24:43.656Z,8.90
2018-08-27T11:25:43.462Z,8.40
2018-08-27T11:26:43.490Z,7.60
2018-08-27T11:27:43.368Z,10.40
2018-08-27T11:28:43.499Z,9.30
2018-08-27T11:29:43.676Z,7.90
2018-08-27T11:30:43.399Z,9.10
2018-08-27T11:31:43.403Z,8.60
2018-08-27T11:32:43.422Z,8.70
2018-08-27T11:33:43.436Z,9.40
2018-08-27T11:34:43.761Z,9.30
2018-08-27T11:35:43.452Z,9.30
2018-08-27T11:36:43.587Z,8.80
2018-08-27T11:37:43.479Z,8.30
2018-08-27T11:38:43.477Z,8.10
2018-08-27T11:39:43.641Z,8.70
2018-08-27T11:40:43.625Z,8.60
2018-08-27T11:41:43.528Z,8.10
2018-08-27T11:42:43.525Z,7.60
2018-08-27T11:43:43.661Z,8.30
2018-08-27T11:44:43.776Z,8.50
2018-08-27T11:45:43.571Z,7.30
2018-08-27T11:46:43.568Z,8.10
2018-08-27T11:47:43.703Z,8.40
2018-08-27T11:48:43.717Z,7.90
2018-08-27T11:50:43.743Z,6.70
2018-08-27T11:52:43.764Z,6.80
2018-08-27T11:53:43.661Z,5.90
2018-08-27T11:54:43.865Z,7.20
2018-08-27T11:57:43.703Z,7.80
2018-08-27T11:58:43.901Z,7.40
2018-08-27T12:00:43.867Z,7.70
2018-08-27T12:02:43.764Z,6.70
2018-08-27T12:04:44.066Z,6.70
2018-08-27T12:06:43.942Z,6.90
2018-08-27T12:07:43.839Z,6.70
2018-08-27T12:08:43.881Z,5.30
2018-08-27T12:09:44.127Z,5.80
2018-08-27T12:10:43.874Z,6.00
2018-08-27T12:11:43.898Z,6.60
2018-08-27T12:14:43.973Z,6.10
2018-08-27T12:17:43.964Z,5.60
2018-08-27T12:18:44.131Z,5.50
2018-08-27T12:19:43.981Z,5.70
2018-08-27T12:22:44.027Z,5.40
2018-08-27T12:25:44.191Z,4.60
2018-08-27T12:26:44.072Z,5.00
2018-08-27T12:27:44.096Z,5.80
2018-08-27T12:28:44.376Z,5.00
2018-08-27T12:29:44.128Z,5.50
2018-08-27T12:30:44.154Z,6.30
2018-08-27T12:31:44.143Z,5.60
2018-08-27T12:32:44.173Z,4.60
2018-08-27T12:33:44.325Z,4.40
2018-08-27T12:35:44.198Z,4.20
2018-08-27T12:38:44.567Z,4.00
2018-08-27T12:39:44.273Z,4.30
2018-08-27T12:40:44.436Z,3.50
2018-08-27T12:41:44.279Z,3.50
2018-08-27T12:42:44.421Z,3.80
2018-08-27T12:43:44.650Z,3.80
2018-08-27T12:44:44.324Z,3.60
2018-08-27T12:45:44.344Z,3.50
2018-08-27T12:48:44.440Z,3.80
2018-08-27T12:49:44.449Z,4.20
2018-08-27T12:51:44.470Z,3.90
2018-08-27T12:52:44.435Z,3.70
2018-08-27T12:53:44.492Z,4.00
2018-08-27T12:54:44.464Z,4.40
2018-08-27T12:55:44.800Z,4.10
2018-08-27T12:57:44.513Z,3.50
2018-08-27T12:58:44.672Z,3.30
2018-08-27T13:00:44.839Z,4.10
2018-08-27T13:02:44.627Z,4.20
2018-08-27T13:03:44.715Z,4.60
2018-08-27T13:05:45.045Z,3.60
2018-08-27T13:06:44.665Z,3.30
2018-08-27T13:07:44.845Z,3.20
2018-08-27T13:09:44.684Z,3.20
2018-08-27T13:10:44.796Z,3.50
2018-08-27T13:11:44.750Z,3.30
2018-08-27T13:12:44.884Z,3.70
2018-08-27T13:14:44.753Z,4.60
2018-08-27T13:15:44.964Z,4.20
2018-08-27T13:18:44.827Z,4.90
2018-08-27T13:21:44.974Z,5.60
2018-08-27T13:25:45.268Z,4.50
2018-08-27T13:27:45.054Z,4.30
2018-08-27T13:28:44.935Z,4.20
2018-08-27T13:29:44.972Z,4.20
2018-08-27T13:30:45.125Z,4.40
2018-08-27T13:31:45.077Z,4.40
2018-08-27T13:33:45.140Z,4.90
2018-08-27T13:34:45.030Z,4.50
2018-08-27T13:35:45.173Z,4.90
2018-08-27T13:36:45.187Z,5.40
2018-08-27T13:37:45.071Z,5.30
2018-08-27T13:39:45.527Z,5.90
2018-08-27T13:40:45.243Z,6.30
2018-08-27T13:42:45.163Z,5.90
2018-08-27T13:43:45.286Z,6.00
2018-08-27T13:45:45.311Z,6.30
2018-08-27T13:47:45.249Z,6.20
2018-08-27T13:48:45.265Z,6.40
2018-08-27T13:49:45.520Z,6.00
2018-08-27T13:50:45.340Z,5.00
2018-08-27T13:51:45.271Z,5.60
2018-08-27T13:52:45.278Z,5.90
2018-08-27T13:53:45.326Z,6.70
2018-08-27T13:54:45.480Z,6.00
2018-08-27T13:55:45.342Z,6.40
2018-08-27T13:56:45.353Z,5.90
2018-08-27T13:57:45.364Z,6.60
2018-08-27T13:58:45.380Z,5.80
2018-08-27T14:01:45.425Z,6.60
2018-08-27T14:02:45.575Z,6.70
2018-08-27T14:04:45.627Z,5.90
2018-08-27T14:05:45.485Z,6.40
2018-08-27T14:07:45.514Z,6.50
2018-08-27T14:08:45.542Z,6.30
2018-08-27T14:09:45.855Z,6.80
2018-08-27T14:10:45.648Z,7.20
2018-08-27T14:12:45.627Z,7.30
2018-08-27T14:13:45.604Z,7.60
2018-08-27T14:14:45.860Z,7.20
2018-08-27T14:16:45.657Z,7.20
2018-08-27T14:17:45.705Z,8.80
2018-08-27T14:19:46.109Z,8.00
2018-08-27T14:20:45.885Z,9.20
2018-08-27T14:21:45.852Z,9.90
2018-08-27T14:22:45.866Z,9.90
2018-08-27T14:23:45.764Z,8.20
2018-08-27T14:24:46.103Z,8.80
2018-08-27T14:25:45.848Z,7.80
2018-08-27T14:27:45.858Z,8.90
2018-08-27T14:29:46.116Z,9.40
2018-08-27T14:31:45.956Z,8.70
2018-08-27T14:34:46.084Z,8.00
2018-08-27T14:35:46.127Z,8.70
2018-08-27T14:36:46.072Z,9.50
2018-08-27T14:37:45.961Z,9.70
2018-08-27T14:38:46.362Z,9.00
2018-08-27T14:39:46.119Z,8.90
2018-08-27T14:40:46.043Z,8.70
2018-08-27T14:42:46.052Z,9.80
2018-08-27T14:43:46.372Z,9.10
2018-08-27T14:45:46.209Z,9.80
2018-08-27T14:46:46.096Z,9.70
2018-08-27T14:47:46.161Z,9.40
2018-08-27T14:48:46.319Z,9.20
2018-08-27T14:49:46.157Z,9.40
2018-08-27T14:50:46.192Z,9.50
2018-08-27T14:51:46.172Z,9.20
2018-08-27T14:54:46.227Z,10.30
2018-08-27T14:55:46.230Z,10.90
2018-08-27T14:56:46.366Z,11.50
2018-08-27T14:57:46.448Z,11.20
2018-08-27T14:58:46.257Z,10.60
2018-08-27T14:59:46.293Z,11.10
2018-08-27T15:02:46.549Z,11.50
2018-08-27T15:04:46.346Z,11.20
2018-08-27T15:05:46.373Z,11.70
2018-08-27T15:08:46.417Z,11.80
2018-08-27T15:09:46.543Z,12.50
2018-08-27T15:10:46.439Z,12.60
2018-08-27T15:12:46.683Z,12.70
2018-08-27T15:13:46.599Z,12.90
2018-08-27T15:15:46.629Z,13.80
2018-08-27T15:16:46.669Z,13.70
2018-08-27T15:21:46.615Z,14.40
2018-08-27T15:24:46.746Z,13.10
2018-08-27T15:26:46.649Z,12.70
2018-08-27T15:27:46.992Z,13.20
2018-08-27T15:28:46.811Z,12.90
2018-08-27T15:29:46.701Z,11.90
2018-08-27T15:30:46.704Z,12.40
2018-08-27T15:31:46.712Z,11.60
2018-08-27T15:34:46.879Z,10.10
2018-08-27T15:36:46.781Z,10.40
2018-08-27T15:38:46.935Z,9.40
2018-08-27T15:39:46.836Z,9.90
2018-08-27T15:40:46.853Z,9.90
2018-08-27T15:41:46.857Z,8.90
2018-08-27T15:42:47.039Z,8.60
2018-08-27T15:44:46.888Z,8.10
2018-08-27T15:45:46.912Z,8.80
2018-08-27T15:46:46.913Z,8.40
2018-08-27T15:48:47.166Z,8.30
2018-08-27T15:50:47.219Z,9.20
2018-08-27T15:52:47.012Z,8.40
2018-08-27T15:53:47.283Z,8.80
2018-08-27T15:54:47.155Z,8.70
2018-08-27T15:55:47.043Z,8.70
2018-08-27T15:56:47.180Z,9.50
2018-08-27T15:57:47.063Z,10.10
2018-08-27T15:59:47.098Z,10.50
2018-08-27T16:00:47.115Z,10.00
2018-08-27T16:02:47.128Z,10.70
2018-08-27T16:03:47.358Z,11.00
2018-08-27T16:04:47.157Z,11.30
2018-08-27T16:05:47.208Z,10.10
2018-08-27T16:08:47.494Z,9.70
2018-08-27T16:09:47.232Z,10.70
2018-08-27T16:11:47.385Z,10.70
2018-08-27T16:12:47.394Z,10.50
2018-08-27T16:13:47.297Z,11.40
2018-08-27T16:14:47.421Z,10.00
2018-08-27T16:15:47.536Z,10.20
2018-08-27T16:18:47.471Z,8.70
2018-08-27T16:20:47.491Z,8.10
2018-08-27T16:21:47.389Z,8.10
2018-08-27T16:22:47.405Z,7.90
2018-08-27T16:23:47.431Z,8.00
2018-08-27T16:24:47.551Z,7.20
2018-08-27T16:26:47.453Z,6.80
2018-08-27T16:28:47.602Z,5.90
2018-08-27T16:29:47.502Z,6.00
2018-08-27T16:30:47.674Z,6.10
2018-08-27T16:32:47.659Z,6.90
2018-08-27T16:33:47.664Z,6.80
2018-08-27T16:34:47.746Z,7.00
2018-08-27T16:35:47.569Z,5.90
2018-08-27T16:36:47.709Z,6.70
2018-08-27T16:37:47.715Z,6.60
2018-08-27T16:38:47.733Z,5.80
2018-08-27T16:39:47.965Z,6.30
2018-08-27T16:41:47.773Z,5.50
2018-08-27T16:42:47.668Z,6.20
2018-08-27T16:45:47.875Z,6.20
2018-08-27T16:47:47.732Z,5.80
2018-08-27T16:48:47.732Z,5.60
2018-08-27T16:49:47.871Z,5.40
2018-08-27T16:51:47.783Z,5.10
2018-08-27T16:53:47.801Z,5.10
2018-08-27T16:56:47.839Z,4.70
2018-08-27T16:58:47.861Z,5.50
2018-08-27T17:03:47.927Z,7.90
2018-08-27T17:04:48.063Z,8.20
2018-08-27T17:05:48.166Z,9.40
2018-08-27T17:07:47.984Z,9.00
2018-08-27T17:08:48.010Z,10.00
2018-08-27T17:09:48.242Z,11.00
2018-08-27T17:11:48.039Z,9.70
2018-08-27T17:12:48.042Z,9.20
2018-08-27T17:16:48.106Z,10.70
2018-08-27T17:18:48.141Z,10.90
2018-08-27T17:19:48.339Z,10.50
2018-08-27T17:20:48.155Z,10.50
2018-08-27T17:21:48.290Z,10.40
2018-08-27T17:22:48.299Z,10.20
2018-08-27T17:23:48.212Z,11.30
2018-08-27T17:24:48.355Z,12.20
2018-08-27T17:25:48.218Z,12.00
2018-08-27T17:26:48.431Z,11.40
2018-08-27T17:27:48.365Z,12.10
2018-08-27T17:28:48.265Z,12.90
2018-08-27T17:29:48.395Z,13.90
2018-08-27T17:30:48.282Z,13.00
2018-08-27T17:31:48.454Z,14.00
2018-08-27T17:32:48.333Z,14.60
2018-08-27T17:33:48.323Z,15.10
2018-08-27T17:34:48.339Z,14.90
2018-08-27T17:35:48.671Z,15.40
2018-08-27T17:36:48.369Z,15.20
2018-08-27T17:37:48.367Z,14.50
2018-08-27T17:38:48.507Z,15.30
2018-08-27T17:39:48.514Z,14.70
2018-08-27T17:40:48.595Z,15.50
2018-08-27T17:41:48.418Z,16.90
2018-08-27T17:42:48.419Z,17.50
2018-08-27T17:43:48.564Z,17.70
2018-08-27T17:44:48.521Z,18.70
2018-08-27T17:45:48.758Z,18.50
2018-08-27T17:46:48.492Z,18.90
2018-08-27T17:47:48.495Z,20.00
2018-08-27T17:48:48.545Z,18.30
2018-08-27T17:49:48.530Z,18.20
2018-08-27T17:50:48.667Z,18.50
2018-08-27T17:51:48.539Z,18.40
2018-08-27T17:52:48.557Z,18.00
2018-08-27T17:53:48.688Z,18.50
2018-08-27T17:54:48.574Z,17.10
2018-08-27T17:55:48.813Z,16.90
2018-08-27T17:56:48.641Z,16.20
2018-08-27T17:57:48.595Z,16.60
2018-08-27T17:58:48.616Z,18.40
2018-08-27T17:59:48.656Z,19.10
2018-08-27T18:00:48.749Z,19.00
2018-08-27T18:01:48.658Z,19.10
2018-08-27T18:02:48.795Z,21.00
2018-08-27T18:03:48.812Z,20.70
2018-08-27T18:04:48.696Z,20.60
2018-08-27T18:05:49.033Z,21.40
2018-08-27T18:06:48.713Z,22.70
2018-08-27T18:07:48.855Z,22.80
2018-08-27T18:08:48.870Z,25.50
2018-08-27T18:09:48.759Z,26.10
2018-08-27T18:10:48.968Z,25.90
2018-08-27T18:11:48.808Z,28.60
2018-08-27T18:12:48.792Z,29.30
2018-08-27T18:13:48.931Z,29.90
2018-08-27T18:14:48.825Z,31.40
2018-08-27T18:15:49.034Z,30.70
2018-08-27T18:16:48.973Z,31.30
2018-08-27T18:17:48.986Z,29.50
2018-08-27T18:18:48.875Z,29.30
2018-08-27T18:19:48.886Z,31.10
2018-08-27T18:20:49.098Z,28.80
2018-08-27T18:21:49.035Z,30.80
2018-08-27T18:22:49.048Z,29.40
2018-08-27T18:23:48.929Z,28.70
2018-08-27T18:24:48.952Z,31.90
2018-08-27T18:25:49.147Z,33.70
2018-08-27T18:26:49.091Z,34.60